createdAt,value
2019-02-12T00:00:15.532Z,76.30
2019-02-12T00:02:44.311Z,76.00
2019-02-12T00:05:13.057Z,76.30
2019-02-12T00:07:41.830Z,76.50
2019-02-12T00:10:10.593Z,76.70
2019-02-12T00:12:42.307Z,76.80
2019-02-12T00:15:11.065Z,77.00
2019-02-12T00:17:39.846Z,77.00
2019-02-12T00:20:08.598Z,76.60
2019-02-12T00:22:37.400Z,76.60
2019-02-12T00:25:07.667Z,76.80
2019-02-12T00:27:36.458Z,76.60
2019-02-12T00:30:08.667Z,76.70
2019-02-12T00:32:37.502Z,76.50
2019-02-12T00:35:06.997Z,76.70
2019-02-12T00:37:37.410Z,76.60
2019-02-12T00:40:08.736Z,77.00
2019-02-12T00:42:37.527Z,77.10
2019-02-12T00:45:08.692Z,77.40
2019-02-12T00:47:37.499Z,77.60
2019-02-12T00:50:09.226Z,78.10
2019-02-12T00:52:37.996Z,78.20
2019-02-12T00:55:08.131Z,78.60
2019-02-12T00:57:36.899Z,79.10
2019-02-12T01:00:13.781Z,79.60
2019-02-12T01:02:42.523Z,80.10
2019-02-12T01:05:11.485Z,80.50
2019-02-12T01:07:40.240Z,81.00
2019-02-12T01:10:10.820Z,81.30
2019-02-12T01:12:39.587Z,82.30
2019-02-12T01:15:11.465Z,82.20
2019-02-12T01:17:40.230Z,82.70
2019-02-12T01:20:11.269Z,82.90
2019-02-12T01:22:40.072Z,83.30
2019-02-12T01:25:08.936Z,83.70
2019-02-12T01:27:37.700Z,83.90
2019-02-12T01:30:09.978Z,84.20
2019-02-12T01:32:39.002Z,84.70
2019-02-12T01:35:07.790Z,85.10
2019-02-12T01:37:36.571Z,85.30
2019-02-12T01:40:07.503Z,85.60
2019-02-12T01:42:36.283Z,85.70
2019-02-12T01:45:06.494Z,86.10
2019-02-12T01:47:35.286Z,86.50
2019-02-12T01:50:05.197Z,86.80
2019-02-12T01:52:33.973Z,87.10
2019-02-12T01:55:02.712Z,87.20
2019-02-12T01:57:31.536Z,87.40
2019-02-12T02:00:00.438Z,87.70
2019-02-12T02:02:29.328Z,87.90
2019-02-12T02:04:58.099Z,88.10
2019-02-12T02:07:26.896Z,88.30
2019-02-12T02:09:55.648Z,88.40
2019-02-12T02:12:24.418Z,88.60
2019-02-12T02:14:53.182Z,88.70
2019-02-12T02:17:21.978Z,89.00
2019-02-12T02:19:50.720Z,89.10
2019-02-12T02:22:19.487Z,89.40
2019-02-12T02:24:48.328Z,89.50
2019-02-12T02:27:17.120Z,89.70
2019-02-12T02:29:45.941Z,90.10
2019-02-12T02:32:14.687Z,90.10
2019-02-12T02:34:43.471Z,90.20
2019-02-12T02:37:12.237Z,90.30
2019-02-12T02:39:41.017Z,90.30
2019-02-12T02:42:09.808Z,90.30
2019-02-12T02:44:38.582Z,90.40
2019-02-12T02:47:07.319Z,90.30
2019-02-12T02:49:36.563Z,90.40
2019-02-12T02:52:05.312Z,90.30
2019-02-12T02:54:34.095Z,90.40
2019-02-12T02:57:02.844Z,90.30
2019-02-12T02:59:31.631Z,90.30
2019-02-12T03:02:00.371Z,90.30
2019-02-12T03:04:29.172Z,90.30
2019-02-12T03:06:57.930Z,90.30
2019-02-12T03:09:26.741Z,90.20
2019-02-12T03:11:55.503Z,90.20
2019-02-12T03:14:24.367Z,90.20
2019-02-12T03:16:53.131Z,90.70
2019-02-12T03:19:21.993Z,90.50
2019-02-12T03:21:50.762Z,90.50
2019-02-12T03:24:19.570Z,90.70
2019-02-12T03:26:48.356Z,90.90
2019-02-12T03:29:17.124Z,91.10
2019-02-12T03:31:45.882Z,91.30
2019-02-12T03:34:14.675Z,91.30
2019-02-12T03:36:43.444Z,91.60
2019-02-12T03:39:13.835Z,91.70
2019-02-12T03:41:42.610Z,91.80
2019-02-12T03:44:11.442Z,91.90
2019-02-12T03:46:40.225Z,91.90
2019-02-12T03:49:08.973Z,91.90
2019-02-12T03:51:37.780Z,92.10
2019-02-12T03:54:06.551Z,92.20
2019-02-12T03:56:35.322Z,92.30
2019-02-12T03:59:05.554Z,92.40
2019-02-12T04:01:34.343Z,92.40
2019-02-12T04:04:03.115Z,92.40
2019-02-12T04:06:31.892Z,92.40
2019-02-12T04:09:00.908Z,92.40
2019-02-12T04:11:29.713Z,92.20
2019-02-12T04:13:58.471Z,92.10
2019-02-12T04:16:27.290Z,92.20
2019-02-12T04:18:56.041Z,92.30
2019-02-12T04:21:24.842Z,92.40
2019-02-12T04:23:53.597Z,92.50
2019-02-12T04:26:24.775Z,92.50
2019-02-12T04:28:53.548Z,92.40
2019-02-12T04:31:22.329Z,92.30
2019-02-12T04:33:52.729Z,92.10
2019-02-12T04:36:21.477Z,92.10
2019-02-12T04:38:50.251Z,92.00
2019-02-12T04:41:19.007Z,92.00
2019-02-12T04:43:47.816Z,91.90
2019-02-12T04:46:16.560Z,91.90
2019-02-12T04:48:45.325Z,92.20
2019-02-12T04:51:14.091Z,91.80
2019-02-12T04:53:42.878Z,91.80
2019-02-12T04:56:11.638Z,91.70
2019-02-12T04:58:40.415Z,91.70
2019-02-12T05:01:09.169Z,91.70
2019-02-12T05:03:38.038Z,91.60
2019-02-12T05:06:06.795Z,91.60
2019-02-12T05:09:07.693Z,91.40
2019-02-12T05:11:36.455Z,91.50
2019-02-12T05:14:05.235Z,91.40
2019-02-12T05:16:34.006Z,91.40
2019-02-12T05:19:02.846Z,91.30
2019-02-12T05:21:31.600Z,91.30
2019-02-12T05:24:00.442Z,91.20
2019-02-12T05:26:30.855Z,91.20
2019-02-12T05:28:59.659Z,91.10
2019-02-12T05:31:28.394Z,91.20
2019-02-12T05:33:59.618Z,91.20
2019-02-12T05:36:28.367Z,91.20
2019-02-12T05:38:57.211Z,91.20
2019-02-12T05:41:25.964Z,91.10
2019-02-12T05:43:54.751Z,91.20
2019-02-12T05:46:25.115Z,91.30
2019-02-12T05:48:56.643Z,91.30
2019-02-12T05:51:25.413Z,91.30
2019-02-12T05:53:55.669Z,91.30
2019-02-12T05:56:24.419Z,91.40
2019-02-12T05:58:53.231Z,91.50
2019-02-12T06:01:21.982Z,91.60
2019-02-12T06:03:50.783Z,91.60
2019-02-12T06:06:19.551Z,91.60
2019-02-12T06:08:48.312Z,92.00
2019-02-12T06:11:17.099Z,91.80
2019-02-12T06:13:45.923Z,91.80
2019-02-12T06:16:14.719Z,92.00
2019-02-12T06:18:43.464Z,91.90
2019-02-12T06:21:14.028Z,91.90
2019-02-12T06:23:42.783Z,91.90
2019-02-12T06:26:13.286Z,91.80
2019-02-12T06:28:43.767Z,91.80
2019-02-12T06:31:14.650Z,91.90
2019-02-12T06:33:43.395Z,91.90
2019-02-12T06:36:12.246Z,91.80
2019-02-12T06:38:40.983Z,91.80
2019-02-12T06:41:09.805Z,91.80
2019-02-12T06:43:38.587Z,91.80
2019-02-12T06:46:07.360Z,91.80
2019-02-12T06:48:36.222Z,91.80
2019-02-12T06:51:05.040Z,92.00
2019-02-12T06:53:33.804Z,92.10
2019-02-12T06:56:02.584Z,92.20
2019-02-12T06:58:31.360Z,92.40
2019-02-12T07:01:00.151Z,92.30
2019-02-12T07:03:32.232Z,92.40
2019-02-12T07:06:07.176Z,92.40
2019-02-12T07:08:54.245Z,92.60
2019-02-12T07:11:44.666Z,92.70
2019-02-12T07:14:28.592Z,92.60
2019-02-12T07:17:18.743Z,92.50
2019-02-12T07:19:59.550Z,92.70
2019-02-12T07:22:48.262Z,92.70
2019-02-12T07:25:38.539Z,92.90
2019-02-12T07:28:25.144Z,92.90
2019-02-12T07:31:21.188Z,92.90
2019-02-12T07:34:08.449Z,92.80
2019-02-12T07:36:58.182Z,92.70
2019-02-12T07:39:46.819Z,92.70
2019-02-12T07:42:30.612Z,92.50
2019-02-12T07:45:03.092Z,92.40
2019-02-12T07:47:47.028Z,92.20
2019-02-12T07:50:38.063Z,92.20
2019-02-12T07:53:12.603Z,92.00
2019-02-12T07:55:51.447Z,91.90
2019-02-12T07:58:32.642Z,91.90
2019-02-12T08:01:04.767Z,92.00
2019-02-12T08:04:02.989Z,92.10
2019-02-12T08:06:35.028Z,92.00
2019-02-12T08:09:25.713Z,91.80
2019-02-12T08:12:06.025Z,91.90
2019-02-12T08:14:44.150Z,91.80
2019-02-12T08:17:28.034Z,91.80
2019-02-12T08:20:25.919Z,91.70
2019-02-12T08:23:16.096Z,91.60
2019-02-12T08:25:50.608Z,91.50
2019-02-12T08:28:23.946Z,91.40
2019-02-12T08:31:18.142Z,91.30
2019-02-12T08:34:17.560Z,91.40
2019-02-12T08:37:24.477Z,91.40
2019-02-12T08:39:56.532Z,91.10
2019-02-12T08:42:46.574Z,91.20
2019-02-12T08:45:39.720Z,91.00
2019-02-12T08:48:17.506Z,90.60
2019-02-12T08:50:52.591Z,90.70
2019-02-12T08:53:36.822Z,90.60
2019-02-12T08:56:14.611Z,90.80
2019-02-12T08:59:11.019Z,90.60
2019-02-12T09:01:55.141Z,90.40
2019-02-12T09:04:46.972Z,90.30
2019-02-12T09:07:29.199Z,90.10
2019-02-12T09:10:22.467Z,90.00
2019-02-12T09:13:09.906Z,90.00
2019-02-12T09:15:58.584Z,90.10
2019-02-12T09:18:50.338Z,90.30
2019-02-12T09:21:42.846Z,90.40
2019-02-12T09:24:38.938Z,90.20
2019-02-12T09:27:30.503Z,90.20
2019-02-12T09:30:21.935Z,89.90
2019-02-12T09:33:09.037Z,89.60
2019-02-12T09:36:00.320Z,89.90
2019-02-12T09:38:59.660Z,88.80
2019-02-12T09:41:37.816Z,87.10
2019-02-12T09:44:12.634Z,84.30
2019-02-12T09:46:50.794Z,82.50
2019-02-12T09:49:31.977Z,81.50
2019-02-12T09:52:09.849Z,81.50
2019-02-12T09:54:47.790Z,80.70
2019-02-12T09:57:29.434Z,80.40
2019-02-12T10:00:01.493Z,79.80
2019-02-12T10:02:48.678Z,80.80
2019-02-12T10:05:29.795Z,81.00
2019-02-12T10:08:16.975Z,81.00
2019-02-12T10:10:57.628Z,81.50
2019-02-12T10:13:35.704Z,82.10
2019-02-12T10:16:16.870Z,82.40
2019-02-12T10:18:48.932Z,81.80
2019-02-12T10:21:26.738Z,81.50
2019-02-12T10:24:04.705Z,81.80
2019-02-12T10:26:39.543Z,82.20
2019-02-12T10:29:23.522Z,82.00
2019-02-12T10:31:51.374Z,81.80
2019-02-12T10:34:20.162Z,81.90
2019-02-12T10:36:49.005Z,80.80
2019-02-12T10:39:18.035Z,80.30
2019-02-12T10:41:46.985Z,81.10
2019-02-12T10:44:15.738Z,81.40
2019-02-12T10:46:44.657Z,81.40
2019-02-12T10:49:13.398Z,81.90
2019-02-12T10:51:42.187Z,82.40
2019-02-12T10:54:13.166Z,82.10
2019-02-12T10:56:41.411Z,82.30
2019-02-12T10:59:10.177Z,82.60
2019-02-12T11:01:39.023Z,81.30
2019-02-12T11:04:07.772Z,81.50
2019-02-12T11:06:36.556Z,81.00
2019-02-12T11:09:05.302Z,80.90
2019-02-12T11:11:34.154Z,80.60
2019-02-12T11:14:02.899Z,80.80
2019-02-12T11:16:31.699Z,79.10
2019-02-12T11:19:00.608Z,77.60
2019-02-12T11:21:29.385Z,73.40
2019-02-12T11:23:58.174Z,71.60
2019-02-12T11:26:26.994Z,72.20
2019-02-12T11:28:55.741Z,72.80
2019-02-12T11:31:24.517Z,74.80
2019-02-12T11:33:53.268Z,77.10
2019-02-12T11:36:22.036Z,78.00
2019-02-12T11:38:50.777Z,78.80
2019-02-12T11:41:19.553Z,79.50
2019-02-12T11:43:48.288Z,80.10
2019-02-12T11:46:17.066Z,80.60
2019-02-12T11:48:45.821Z,81.30
2019-02-12T11:51:14.560Z,81.20
2019-02-12T11:53:43.359Z,81.20
2019-02-12T11:56:12.104Z,80.80
2019-02-12T11:58:40.890Z,81.70
2019-02-12T12:01:11.283Z,79.60
2019-02-12T12:03:40.047Z,80.80
2019-02-12T12:06:08.801Z,79.50
2019-02-12T12:08:37.572Z,80.10
2019-02-12T12:11:06.405Z,80.80
2019-02-12T12:13:35.183Z,81.50
2019-02-12T12:16:03.928Z,81.10
2019-02-12T12:18:32.689Z,81.60
2019-02-12T12:21:01.445Z,82.20
2019-02-12T12:23:30.291Z,82.10
2019-02-12T12:25:59.031Z,81.60
2019-02-12T12:28:27.813Z,81.30
2019-02-12T12:31:08.536Z,81.70
2019-02-12T12:33:37.378Z,82.10
2019-02-12T12:36:06.135Z,81.60
2019-02-12T12:38:34.921Z,81.70
2019-02-12T12:41:03.654Z,82.40
2019-02-12T12:43:32.414Z,82.60
2019-02-12T12:46:01.192Z,83.20
2019-02-12T12:48:30.205Z,82.20
2019-02-12T12:50:59.005Z,83.40
2019-02-12T12:53:27.762Z,84.30
2019-02-12T12:55:56.711Z,83.30
2019-02-12T12:58:25.551Z,84.10
2019-02-12T13:00:54.357Z,84.10
2019-02-12T13:03:23.128Z,83.40
2019-02-12T13:05:51.946Z,83.80
2019-02-12T13:08:20.707Z,81.80
2019-02-12T13:10:49.499Z,80.40
2019-02-12T13:13:18.311Z,79.90
2019-02-12T13:15:47.101Z,78.40
2019-02-12T13:18:15.846Z,78.00
2019-02-12T13:20:44.629Z,78.60
2019-02-12T13:23:13.378Z,78.30
2019-02-12T13:25:42.150Z,79.20
2019-02-12T13:28:10.887Z,79.90
2019-02-12T13:30:39.741Z,81.10
2019-02-12T13:33:08.640Z,81.70
2019-02-12T13:35:37.407Z,81.80
2019-02-12T13:38:06.171Z,82.50
2019-02-12T13:40:34.932Z,83.10
2019-02-12T13:43:03.781Z,83.30
2019-02-12T13:45:32.539Z,83.70
2019-02-12T13:48:01.332Z,84.20
2019-02-12T13:50:30.075Z,84.30
2019-02-12T13:52:58.976Z,84.70
2019-02-12T13:55:27.720Z,84.80
2019-02-12T13:57:56.533Z,84.50
2019-02-12T14:00:25.294Z,84.70
2019-02-12T14:02:54.107Z,84.90
2019-02-12T14:05:23.910Z,85.20
2019-02-12T14:07:52.772Z,84.80
2019-02-12T14:10:21.612Z,84.60
2019-02-12T14:12:50.452Z,84.80
2019-02-12T14:15:19.198Z,84.80
2019-02-12T14:17:48.056Z,83.90
2019-02-12T14:20:17.594Z,82.10
2019-02-12T14:22:46.373Z,82.50
2019-02-12T14:25:15.900Z,80.10
2019-02-12T14:27:44.775Z,79.50
2019-02-12T14:30:20.912Z,80.50
2019-02-12T14:32:49.967Z,80.80
2019-02-12T14:35:18.764Z,81.50
2019-02-12T14:37:47.594Z,82.10
2019-02-12T14:40:16.517Z,82.30
2019-02-12T14:42:45.341Z,83.00
2019-02-12T14:45:18.895Z,82.70
2019-02-12T14:47:47.798Z,83.10
2019-02-12T14:50:20.526Z,83.10
2019-02-12T14:52:49.301Z,83.30
2019-02-12T14:55:18.074Z,83.60
2019-02-12T14:57:46.857Z,83.90
2019-02-12T15:00:19.569Z,84.30
2019-02-12T15:02:48.324Z,85.00
2019-02-12T15:05:17.274Z,84.90
2019-02-12T15:07:46.072Z,85.70
2019-02-12T15:10:15.586Z,84.90
2019-02-12T15:12:44.362Z,85.10
2019-02-12T15:15:13.147Z,85.10
2019-02-12T15:17:41.954Z,85.10
2019-02-12T15:20:14.191Z,84.30
2019-02-12T15:22:42.960Z,84.00
2019-02-12T15:25:12.348Z,83.70
2019-02-12T15:27:41.185Z,83.20
2019-02-12T15:30:13.171Z,82.60
2019-02-12T15:32:41.935Z,81.60
2019-02-12T15:35:11.081Z,81.90
2019-02-12T15:37:39.843Z,81.90
2019-02-12T15:40:11.295Z,81.70
2019-02-12T15:42:40.170Z,81.60
2019-02-12T15:45:14.579Z,81.30
2019-02-12T15:47:43.626Z,81.40
2019-02-12T15:50:12.739Z,81.50
2019-02-12T15:52:41.579Z,81.40
2019-02-12T15:55:13.651Z,81.20
2019-02-12T15:57:43.689Z,81.20
2019-02-12T16:00:16.244Z,80.40
2019-02-12T16:02:46.059Z,80.50
2019-02-12T16:05:15.004Z,80.30
2019-02-12T16:07:46.106Z,80.20
2019-02-12T16:10:17.602Z,79.90
2019-02-12T16:12:51.290Z,80.30
2019-02-12T16:15:22.395Z,80.40
2019-02-12T16:17:50.681Z,80.60
2019-02-12T16:20:19.448Z,80.90
2019-02-12T16:22:48.315Z,80.70
2019-02-12T16:25:17.074Z,80.80
2019-02-12T16:27:45.846Z,81.30
2019-02-12T16:30:20.361Z,81.60
2019-02-12T16:32:49.190Z,81.90
2019-02-12T16:35:18.446Z,82.00
2019-02-12T16:37:47.252Z,82.30
2019-02-12T16:40:18.875Z,82.60
2019-02-12T16:42:47.640Z,82.50
2019-02-12T16:45:34.971Z,82.70
2019-02-12T16:48:03.748Z,82.90
2019-02-12T16:50:33.556Z,83.30
2019-02-12T16:53:02.327Z,83.80
2019-02-12T16:55:31.118Z,83.50
2019-02-12T16:58:00.475Z,83.50
2019-02-12T17:00:29.332Z,83.50
2019-02-12T17:02:58.739Z,83.60
2019-02-12T17:05:27.520Z,83.80
2019-02-12T17:07:56.296Z,83.40
2019-02-12T17:10:25.058Z,83.70
2019-02-12T17:12:53.851Z,83.60
2019-02-12T17:15:22.657Z,83.60
2019-02-12T17:17:52.512Z,83.30
2019-02-12T17:20:23.781Z,83.20
2019-02-12T17:22:52.578Z,83.70
2019-02-12T17:25:22.028Z,83.40
2019-02-12T17:27:50.933Z,83.50
2019-02-12T17:30:19.845Z,83.70
2019-02-12T17:32:48.608Z,83.90
2019-02-12T17:35:17.392Z,84.20
2019-02-12T17:37:46.146Z,84.50
2019-02-12T17:40:18.691Z,84.90
2019-02-12T17:42:47.465Z,85.10
2019-02-12T17:45:17.727Z,85.60
2019-02-12T17:47:46.559Z,85.70
2019-02-12T17:50:15.798Z,86.20
2019-02-12T17:52:45.975Z,86.10
2019-02-12T17:55:14.760Z,86.50
2019-02-12T17:57:43.535Z,86.60
2019-02-12T18:00:24.963Z,87.00
2019-02-12T18:02:53.722Z,87.10
2019-02-12T18:05:22.599Z,86.90
2019-02-12T18:07:51.417Z,86.70
2019-02-12T18:10:20.191Z,86.50
2019-02-12T18:12:49.014Z,86.60
2019-02-12T18:15:17.883Z,86.30
2019-02-12T18:17:46.643Z,85.70
2019-02-12T18:20:16.913Z,85.60
2019-02-12T18:22:45.743Z,85.20
2019-02-12T18:25:14.543Z,85.80
2019-02-12T18:27:43.472Z,85.10
2019-02-12T18:30:16.758Z,85.20
2019-02-12T18:32:45.564Z,86.20
2019-02-12T18:35:14.320Z,85.70
2019-02-12T18:37:43.162Z,86.00
2019-02-12T18:40:16.465Z,85.90
2019-02-12T18:42:45.347Z,86.10
2019-02-12T18:45:22.129Z,86.10
2019-02-12T18:47:51.020Z,86.20
2019-02-12T18:50:19.955Z,86.50
2019-02-12T18:52:49.085Z,86.80
2019-02-12T18:55:17.875Z,87.10
2019-02-12T18:57:46.696Z,87.30
2019-02-12T19:00:20.452Z,87.50
2019-02-12T19:02:49.684Z,87.60
2019-02-12T19:05:18.443Z,87.60
2019-02-12T19:07:47.300Z,87.60
2019-02-12T19:10:19.047Z,87.40
2019-02-12T19:15:22.826Z,87.40
2019-02-12T19:17:58.090Z,87.30
2019-02-12T19:20:26.852Z,87.20
2019-02-12T19:22:55.724Z,87.30
2019-02-12T19:25:24.503Z,87.40
2019-02-12T19:27:54.408Z,87.50
2019-02-12T19:30:23.224Z,87.70
2019-02-12T19:32:52.100Z,87.90
2019-02-12T19:35:20.892Z,88.30
2019-02-12T19:37:49.893Z,88.50
2019-02-12T19:40:18.681Z,88.40
2019-02-12T19:42:47.442Z,88.90
2019-02-12T19:45:17.474Z,88.90
2019-02-12T19:47:46.235Z,89.10
2019-02-12T19:50:15.085Z,89.10
2019-02-12T19:52:44.518Z,89.30
2019-02-12T19:55:13.984Z,89.40
2019-02-12T19:57:42.774Z,89.50
2019-02-12T20:00:15.890Z,89.80
2019-02-12T20:02:44.758Z,90.00
2019-02-12T20:05:13.753Z,90.00
2019-02-12T20:07:42.617Z,90.20
2019-02-12T20:10:17.826Z,90.20
2019-02-12T20:12:46.675Z,90.30
2019-02-12T20:15:20.692Z,90.40
2019-02-12T20:17:49.473Z,90.50
2019-02-12T20:20:18.395Z,90.40
2019-02-12T20:22:47.143Z,90.40
2019-02-12T20:25:16.041Z,90.50
2019-02-12T20:27:44.854Z,90.50
2019-02-12T20:30:17.001Z,90.40
2019-02-12T20:32:45.819Z,90.40
2019-02-12T20:35:18.213Z,90.30
2019-02-12T20:37:47.057Z,90.20
2019-02-12T20:40:15.920Z,90.10
2019-02-12T20:42:44.670Z,90.10
2019-02-12T20:45:17.294Z,90.20
2019-02-12T20:47:48.380Z,90.20
2019-02-12T20:50:18.680Z,90.30
2019-02-12T20:52:49.160Z,90.40
2019-02-12T20:55:17.922Z,90.50
2019-02-12T20:57:46.818Z,90.60
2019-02-12T21:00:21.187Z,90.60
2019-02-12T21:02:49.977Z,90.60
2019-02-12T21:05:19.029Z,90.70
2019-02-12T21:07:47.818Z,90.70
2019-02-12T21:10:22.566Z,90.70
2019-02-12T21:12:51.395Z,90.80
2019-02-12T21:15:30.889Z,90.70
2019-02-12T21:18:01.272Z,90.70
2019-02-12T21:20:30.024Z,90.60
2019-02-12T21:22:58.870Z,90.70
2019-02-12T21:25:27.657Z,90.80
2019-02-12T21:27:58.919Z,90.80
2019-02-12T21:30:32.797Z,90.80
2019-02-12T21:33:01.657Z,90.90
2019-02-12T21:35:30.413Z,90.90
2019-02-12T21:37:59.877Z,90.90
2019-02-12T21:40:28.694Z,90.80
2019-02-12T21:42:57.475Z,90.80
2019-02-12T21:45:26.245Z,90.70
2019-02-12T21:47:55.039Z,91.00
2019-02-12T21:50:23.795Z,90.70
2019-02-12T21:52:52.649Z,90.60
2019-02-12T21:55:24.018Z,90.40
2019-02-12T21:57:52.804Z,90.40
2019-02-12T22:00:22.414Z,90.30
2019-02-12T22:02:54.579Z,90.20
2019-02-12T22:05:23.421Z,90.10
2019-02-12T22:07:52.728Z,90.10
2019-02-12T22:10:25.919Z,90.10
2019-02-12T22:12:54.692Z,90.00
2019-02-12T22:15:28.215Z,89.70
2019-02-12T22:17:58.618Z,89.60
2019-02-12T22:20:27.403Z,89.30
2019-02-12T22:22:59.233Z,89.20
2019-02-12T22:25:28.022Z,89.10
2019-02-12T22:27:56.787Z,89.50
2019-02-12T22:30:26.142Z,89.10
2019-02-12T22:32:56.128Z,89.10
2019-02-12T22:35:24.901Z,89.90
2019-02-12T22:37:53.709Z,88.90
2019-02-12T22:40:22.515Z,88.70
2019-02-12T22:42:51.283Z,88.50
2019-02-12T22:45:24.422Z,88.40
2019-02-12T22:47:53.174Z,88.50
2019-02-12T22:50:21.972Z,88.40
2019-02-12T22:52:50.712Z,87.90
2019-02-12T22:55:19.748Z,87.60
2019-02-12T22:57:49.526Z,87.40
2019-02-12T23:00:47.075Z,87.20
2019-02-12T23:03:15.839Z,87.00
2019-02-12T23:05:44.666Z,87.10
2019-02-12T23:08:25.487Z,87.00
2019-02-12T23:10:54.285Z,87.00
2019-02-12T23:13:23.044Z,87.10
2019-02-12T23:15:51.820Z,87.30
2019-02-12T23:18:23.508Z,87.30
2019-02-12T23:20:52.300Z,87.50
2019-02-12T23:23:21.060Z,87.50
2019-02-12T23:25:49.878Z,87.60
2019-02-12T23:28:18.665Z,87.60
2019-02-12T23:30:47.421Z,87.50
2019-02-12T23:33:16.237Z,87.30
2019-02-12T23:35:45.019Z,87.60
2019-02-12T23:38:15.362Z,87.50
2019-02-12T23:40:44.141Z,87.60
2019-02-12T23:43:12.950Z,87.70
2019-02-12T23:45:42.128Z,87.70
2019-02-12T23:48:10.913Z,87.80
2019-02-12T23:50:39.658Z,87.90
2019-02-12T23:53:08.462Z,88.00
2019-02-12T23:55:37.217Z,87.90
2019-02-12T23:58:06.393Z,88.00
